createdAt,value
2022-12-03T00:04:06.534Z,100788.13
2022-12-03T00:09:09.313Z,100789.06
2022-12-03T00:14:12.066Z,100781.06
2022-12-03T00:19:16.197Z,100783.00
2022-12-03T00:24:19.136Z,100781.34
2022-12-03T00:29:21.934Z,100786.06
2022-12-03T00:34:26.041Z,100784.34
2022-12-03T00:39:31.140Z,100778.09
2022-12-03T00:44:33.941Z,100785.38
2022-12-03T00:49:38.021Z,100784.53
2022-12-03T00:54:40.796Z,100784.63
2022-12-03T00:59:43.586Z,100782.03
2022-12-03T01:04:47.861Z,100781.25
2022-12-03T01:09:50.756Z,100783.16
2022-12-03T01:14:54.508Z,100776.94
2022-12-03T01:19:59.120Z,100775.19
2022-12-03T01:25:02.064Z,100783.34
2022-12-03T01:30:05.716Z,100778.13
2022-12-03T01:35:10.385Z,100775.50
2022-12-03T01:40:20.900Z,100772.81
2022-12-03T01:45:25.476Z,100770.13
2022-12-03T01:50:34.214Z,100774.75
2022-12-03T01:55:38.100Z,100764.94
2022-12-03T02:00:41.405Z,100766.66
2022-12-03T02:05:45.573Z,100760.53
2022-12-03T02:10:48.351Z,100760.59
2022-12-03T02:15:51.176Z,100765.22
2022-12-03T02:21:05.633Z,100763.38
2022-12-03T02:26:09.994Z,100761.56
2022-12-03T02:31:12.953Z,100766.06
2022-12-03T02:36:16.095Z,100765.31
2022-12-03T02:41:39.574Z,100775.97
2022-12-03T02:46:42.607Z,100763.59
2022-12-03T02:51:46.052Z,100773.28
2022-12-03T02:56:50.401Z,100773.41
2022-12-03T03:01:53.285Z,100782.59
2022-12-03T03:06:56.154Z,100775.50
2022-12-03T03:12:00.287Z,100778.94
2022-12-03T03:17:04.515Z,100777.31
2022-12-03T03:22:07.268Z,100776.47
2022-12-03T03:27:11.744Z,100777.41
2022-12-03T03:32:14.693Z,100774.78
2022-12-03T03:37:17.837Z,100770.38
2022-12-03T03:42:22.557Z,100774.63
2022-12-03T03:47:25.704Z,100773.84
2022-12-03T03:52:29.020Z,100772.97
2022-12-03T03:57:33.549Z,100777.41
2022-12-03T04:02:38.324Z,100768.44
2022-12-03T04:07:41.069Z,100756.91
2022-12-03T04:12:57.005Z,100762.19
2022-12-03T04:18:17.319Z,100741.72
2022-12-03T04:23:20.103Z,100746.16
2022-12-03T04:28:41.857Z,100747.97
2022-12-03T04:34:02.054Z,100746.91
2022-12-03T04:39:05.048Z,100751.63
2022-12-03T04:44:26.935Z,100749.59
2022-12-03T04:49:29.908Z,100745.19
2022-12-03T04:54:32.804Z,100740.00
2022-12-03T04:59:37.752Z,100738.06
2022-12-03T05:04:40.500Z,100739.16
2022-12-03T05:09:43.293Z,100747.28
2022-12-03T05:14:47.589Z,100735.59
2022-12-03T05:20:07.895Z,100736.16
2022-12-03T05:25:11.094Z,100731.06
2022-12-03T05:30:15.711Z,100719.50
2022-12-03T05:35:18.790Z,100726.44
2022-12-03T05:40:22.129Z,100722.78
2022-12-03T05:45:28.986Z,100722.78
2022-12-03T05:50:35.363Z,100725.69
2022-12-03T05:55:49.711Z,100717.63
2022-12-03T06:00:53.768Z,100718.47
2022-12-03T06:05:56.695Z,100720.38
2022-12-03T06:10:59.455Z,100709.53
2022-12-03T06:16:03.658Z,100709.53
2022-12-03T06:21:06.827Z,100717.63
2022-12-03T06:26:09.883Z,100723.00
2022-12-03T06:31:14.201Z,100722.13
2022-12-03T06:36:22.573Z,100718.53
2022-12-03T06:41:25.970Z,100719.34
2022-12-03T06:46:30.206Z,100711.28
2022-12-03T06:51:33.036Z,100714.72
2022-12-03T06:56:40.393Z,100720.09
2022-12-03T07:01:49.104Z,100724.72
2022-12-03T07:06:52.026Z,100720.38
2022-12-03T07:11:54.751Z,100717.50
2022-12-03T07:16:58.977Z,100716.66
2022-12-03T07:22:02.106Z,100719.13
2022-12-03T07:27:05.037Z,100716.66
2022-12-03T07:32:09.229Z,100718.28
2022-12-03T07:37:12.038Z,100722.13
2022-12-03T07:42:16.365Z,100718.28
2022-12-03T07:47:20.517Z,100723.59
2022-12-03T07:52:23.411Z,100720.00
2022-12-03T07:57:26.210Z,100718.09
2022-12-03T08:02:30.373Z,100718.00
2022-12-03T08:07:33.276Z,100724.72
2022-12-03T08:12:41.736Z,100723.00
2022-12-03T08:17:48.384Z,100721.91
2022-12-03T08:22:53.524Z,100717.19
2022-12-03T08:28:03.563Z,100712.19
2022-12-03T08:33:18.474Z,100709.34
2022-12-03T08:38:23.302Z,100703.78
2022-12-03T08:43:28.121Z,100709.22
2022-12-03T08:48:33.698Z,100698.81
2022-12-03T08:53:38.117Z,100706.44
2022-12-03T08:58:42.467Z,100710.56
2022-12-03T09:03:51.597Z,100701.31
2022-12-03T09:08:54.406Z,100701.13
2022-12-03T09:13:57.151Z,100702.84
2022-12-03T09:19:01.272Z,100692.19
2022-12-03T09:24:04.207Z,100697.56
2022-12-03T09:29:11.848Z,100695.84
2022-12-03T09:34:16.912Z,100694.03
2022-12-03T09:39:19.737Z,100705.66
2022-12-03T09:44:22.857Z,100700.16
2022-12-03T09:49:28.872Z,100701.88
2022-12-03T09:54:33.246Z,100698.16
2022-12-03T09:59:36.054Z,100691.69
2022-12-03T10:04:40.203Z,100681.47
2022-12-03T10:09:43.116Z,100688.69
2022-12-03T10:14:45.922Z,100679.88
2022-12-03T10:19:50.490Z,100673.16
2022-12-03T10:25:07.627Z,100670.94
2022-12-03T10:30:18.371Z,100668.50
2022-12-03T10:35:24.397Z,100664.59
2022-12-03T10:40:31.520Z,100662.56
2022-12-03T10:45:34.321Z,100657.06
2022-12-03T10:50:38.781Z,100659.56
2022-12-03T10:55:44.198Z,100648.97
2022-12-03T11:00:47.392Z,100636.47
2022-12-03T11:05:53.056Z,100632.16
2022-12-03T11:11:00.839Z,100628.69
2022-12-03T11:16:05.705Z,100625.13
2022-12-03T11:21:12.193Z,100622.00
2022-12-03T11:26:19.256Z,100624.28
2022-12-03T11:31:40.270Z,100629.25
2022-12-03T11:37:16.469Z,100619.13
2022-12-03T11:42:41.136Z,100613.53
2022-12-03T11:47:46.669Z,100600.81
2022-12-03T11:52:54.467Z,100596.50
2022-12-03T11:58:04.940Z,100595.84
2022-12-03T12:03:23.434Z,100592.38
2022-12-03T12:08:26.250Z,100589.28
2022-12-03T12:13:50.254Z,100596.72
2022-12-03T12:18:55.421Z,100597.22
2022-12-03T12:24:18.921Z,100582.84
2022-12-03T12:29:23.229Z,100572.00
2022-12-03T12:34:26.452Z,100567.69
2022-12-03T12:39:29.624Z,100561.31
2022-12-03T12:44:33.944Z,100569.53
2022-12-03T12:49:36.717Z,100572.47
2022-12-03T12:54:39.565Z,100558.50
2022-12-03T12:59:43.698Z,100560.69
2022-12-03T13:04:46.515Z,100549.50
2022-12-03T13:09:54.756Z,100544.09
2022-12-03T13:15:01.219Z,100535.03
2022-12-03T13:20:15.488Z,100529.75
2022-12-03T13:25:58.247Z,100526.50
2022-12-03T13:31:11.002Z,100524.13
2022-12-03T13:36:16.924Z,100528.06
2022-12-03T13:41:39.462Z,100527.44
2022-12-03T13:46:44.116Z,100520.50
2022-12-03T13:51:47.273Z,100518.97
2022-12-03T13:56:50.968Z,100530.84
2022-12-03T14:01:55.377Z,100528.41
2022-12-03T14:06:58.260Z,100530.28
2022-12-03T14:12:18.740Z,100535.81
2022-12-03T14:17:23.015Z,100541.03
2022-12-03T14:22:25.993Z,100539.31
2022-12-03T14:27:28.974Z,100541.88
2022-12-03T14:32:33.187Z,100546.19
2022-12-03T14:37:36.121Z,100541.69
2022-12-03T14:42:38.878Z,100550.41
2022-12-03T14:47:43.141Z,100544.19
2022-12-03T14:53:01.544Z,100545.56
2022-12-03T14:58:04.827Z,100534.22
2022-12-03T15:03:09.040Z,100532.56
2022-12-03T15:08:11.875Z,100536.66
2022-12-03T15:13:14.787Z,100536.09
2022-12-03T15:18:18.909Z,100537.72
2022-12-03T15:23:22.015Z,100540.09
2022-12-03T15:28:24.854Z,100542.88
2022-12-03T15:33:29.071Z,100544.84
2022-12-03T15:38:31.832Z,100539.31
2022-12-03T15:43:35.189Z,100542.66
2022-12-03T15:48:39.455Z,100543.06
2022-12-03T15:53:45.979Z,100536.59
2022-12-03T15:58:49.171Z,100544.59
2022-12-03T16:03:53.706Z,100537.09
2022-12-03T16:08:56.521Z,100535.72
2022-12-03T16:13:59.632Z,100539.28
2022-12-03T16:19:04.277Z,100538.41
2022-12-03T16:24:07.426Z,100537.44
2022-12-03T16:29:10.261Z,100522.50
2022-12-03T16:34:14.635Z,100533.88
2022-12-03T16:39:17.402Z,100530.72
2022-12-03T16:44:32.494Z,100523.00
2022-12-03T16:49:36.692Z,100526.56
2022-12-03T16:54:39.741Z,100526.44
2022-12-03T16:59:42.848Z,100519.44
2022-12-03T17:04:46.990Z,100515.53
2022-12-03T17:09:50.770Z,100512.88
2022-12-03T17:14:53.670Z,100502.28
2022-12-03T17:19:58.104Z,100505.25
2022-12-03T17:25:01.072Z,100499.19
2022-12-03T17:30:09.329Z,100497.22
2022-12-03T17:35:13.672Z,100486.78
2022-12-03T17:40:17.721Z,100480.63
2022-12-03T17:45:20.731Z,100484.50
2022-12-03T17:50:25.033Z,100480.56
2022-12-03T17:55:36.978Z,100492.78
2022-12-03T18:00:44.056Z,100489.69
2022-12-03T18:05:48.611Z,100498.34
2022-12-03T18:10:51.520Z,100494.16
2022-12-03T18:15:54.520Z,100495.66
2022-12-03T18:21:02.038Z,100496.22
2022-12-03T18:26:05.337Z,100498.53
2022-12-03T18:31:14.586Z,100493.34
2022-12-03T18:36:21.828Z,100498.00
2022-12-03T18:41:25.550Z,100494.66
2022-12-03T18:46:52.533Z,100475.13
2022-12-03T18:51:59.066Z,100478.03
2022-12-03T18:57:02.646Z,100473.63
2022-12-03T19:02:06.073Z,100475.66
2022-12-03T19:07:10.904Z,100474.81
2022-12-03T19:12:14.855Z,100477.75
2022-12-03T19:17:17.776Z,100474.28
2022-12-03T19:22:22.109Z,100487.91
2022-12-03T19:27:24.970Z,100480.91
2022-12-03T19:32:27.974Z,100477.56
2022-12-03T19:37:34.496Z,100478.53
2022-12-03T19:42:37.322Z,100479.50
2022-12-03T19:47:40.343Z,100479.50
2022-12-03T19:52:44.807Z,100481.44
2022-12-03T19:57:48.153Z,100480.03
2022-12-03T20:02:51.163Z,100479.19
2022-12-03T20:07:55.774Z,100479.28
2022-12-03T20:12:58.795Z,100483.81
2022-12-03T20:18:01.575Z,100479.47
2022-12-03T20:23:05.938Z,100483.16
2022-12-03T20:28:08.738Z,100476.25
2022-12-03T20:33:11.798Z,100469.13
2022-12-03T20:38:16.168Z,100472.91
2022-12-03T20:43:19.700Z,100455.00
2022-12-03T20:48:22.730Z,100451.41
2022-12-03T20:53:26.984Z,100445.28
2022-12-03T20:58:31.096Z,100444.31
2022-12-03T21:03:34.506Z,100456.63
2022-12-03T21:08:42.143Z,100453.91
2022-12-03T21:13:46.419Z,100458.56
2022-12-03T21:18:49.469Z,100451.22
2022-12-03T21:23:54.507Z,100453.06
2022-12-03T21:28:57.361Z,100451.22
2022-12-03T21:34:00.449Z,100444.84
2022-12-03T21:39:05.337Z,100447.00
2022-12-03T21:44:08.223Z,100444.22
2022-12-03T21:49:11.080Z,100449.50
2022-12-03T21:54:15.566Z,100452.94
2022-12-03T21:59:18.407Z,100446.34
2022-12-03T22:04:21.479Z,100450.13
2022-12-03T22:09:26.831Z,100454.56
2022-12-03T22:14:30.241Z,100445.09
2022-12-03T22:19:33.160Z,100445.53
2022-12-03T22:24:38.585Z,100440.66
2022-12-03T22:29:41.683Z,100445.44
2022-12-03T22:34:44.457Z,100442.94
2022-12-03T22:39:48.644Z,100430.63
2022-12-03T22:44:51.784Z,100428.38
2022-12-03T22:49:54.811Z,100420.59
2022-12-03T22:54:59.249Z,100421.69
2022-12-03T23:00:02.050Z,100413.72
2022-12-03T23:05:05.840Z,100413.06
2022-12-03T23:10:11.185Z,100410.50
2022-12-03T23:15:14.250Z,100408.97
2022-12-03T23:20:17.130Z,100412.66
2022-12-03T23:25:22.300Z,100403.91
2022-12-03T23:30:25.348Z,100405.00
2022-12-03T23:35:28.189Z,100408.75
2022-12-03T23:40:32.343Z,100405.19
2022-12-03T23:45:35.387Z,100392.91
2022-12-03T23:50:41.216Z,100389.34
2022-12-03T23:55:45.785Z,100380.47
